sensor_id;sensor_type;location;lat;lon;timestamp;pressure;altitude;pressure_sealevel;temperature;humidity
67109;BME280;54027;50.786;7.058;2023-12-07T00:00:33;101459.75;;;0.47;100.00
67109;BME280;54027;50.786;7.058;2023-12-07T00:02:59;101467.56;;;0.51;100.00
67109;BME280;54027;50.786;7.058;2023-12-07T00:05:25;101460.09;;;0.56;100.00
67109;BME280;54027;50.786;7.058;2023-12-07T00:07:51;101464.41;;;0.57;100.00
67109;BME280;54027;50.786;7.058;2023-12-07T00:10:16;101466.16;;;0.58;100.00
67109;BME280;54027;50.786;7.058;2023-12-07T00:12:42;101464.41;;;0.57;100.00
67109;BME280;54027;50.786;7.058;2023-12-07T00:15:08;101464.34;;;0.55;100.00
67109;BME280;54027;50.786;7.058;2023-12-07T00:17:33;101461.72;;;0.54;100.00
67109;BME280;54027;50.786;7.058;2023-12-07T00:19:59;101465.31;;;0.59;100.00
67109;BME280;54027;50.786;7.058;2023-12-07T00:22:25;101463.13;;;0.66;100.00
67109;BME280;54027;50.786;7.058;2023-12-07T00:24:52;101460.88;;;0.74;100.00
67109;BME280;54027;50.786;7.058;2023-12-07T00:27:18;101464.56;;;0.81;100.00
67109;BME280;54027;50.786;7.058;2023-12-07T00:29:44;101465.81;;;0.90;100.00
67109;BME280;54027;50.786;7.058;2023-12-07T00:32:09;101467.13;;;1.01;100.00
67109;BME280;54027;50.786;7.058;2023-12-07T00:34:35;101465.06;;;1.13;100.00
67109;BME280;54027;50.786;7.058;2023-12-07T00:37:00;101460.44;;;1.24;100.00
67109;BME280;54027;50.786;7.058;2023-12-07T00:39:26;101466.63;;;1.30;100.00
67109;BME280;54027;50.786;7.058;2023-12-07T00:41:52;101467.84;;;1.40;100.00
67109;BME280;54027;50.786;7.058;2023-12-07T00:44:18;101464.69;;;1.46;100.00
67109;BME280;54027;50.786;7.058;2023-12-07T00:46:43;101475.44;;;1.39;100.00
67109;BME280;54027;50.786;7.058;2023-12-07T00:49:09;101477.03;;;1.37;100.00
67109;BME280;54027;50.786;7.058;2023-12-07T00:51:35;101480.03;;;1.47;100.00
67109;BME280;54027;50.786;7.058;2023-12-07T00:54:01;101478.59;;;1.54;100.00
67109;BME280;54027;50.786;7.058;2023-12-07T00:56:26;101478.94;;;1.63;100.00
67109;BME280;54027;50.786;7.058;2023-12-07T00:58:52;101479.81;;;1.63;100.00
67109;BME280;54027;50.786;7.058;2023-12-07T01:01:17;101487.41;;;1.62;100.00
67109;BME280;54027;50.786;7.058;2023-12-07T01:03:43;101481.56;;;1.64;100.00
67109;BME280;54027;50.786;7.058;2023-12-07T01:06:08;101481.84;;;1.72;100.00
67109;BME280;54027;50.786;7.058;2023-12-07T01:08:36;101484.63;;;1.78;100.00
67109;BME280;54027;50.786;7.058;2023-12-07T01:11:02;101483.91;;;1.80;100.00
67109;BME280;54027;50.786;7.058;2023-12-07T01:13:28;101488.38;;;1.88;100.00
67109;BME280;54027;50.786;7.058;2023-12-07T01:15:53;101480.94;;;1.92;100.00
67109;BME280;54027;50.786;7.058;2023-12-07T01:18:19;101475.19;;;1.98;100.00
67109;BME280;54027;50.786;7.058;2023-12-07T01:20:44;101478.00;;;2.05;100.00
67109;BME280;54027;50.786;7.058;2023-12-07T01:23:10;101481.66;;;2.12;100.00
67109;BME280;54027;50.786;7.058;2023-12-07T01:25:35;101480.22;;;2.18;100.00
67109;BME280;54027;50.786;7.058;2023-12-07T01:28:01;101482.13;;;2.24;100.00
67109;BME280;54027;50.786;7.058;2023-12-07T01:30:27;101477.16;;;2.28;100.00
67109;BME280;54027;50.786;7.058;2023-12-07T01:32:52;101478.03;;;2.29;100.00
67109;BME280;54027;50.786;7.058;2023-12-07T01:35:18;101479.38;;;2.19;100.00
67109;BME280;54027;50.786;7.058;2023-12-07T01:37:43;101473.38;;;2.17;100.00
67109;BME280;54027;50.786;7.058;2023-12-07T01:40:09;101476.00;;;2.19;100.00
67109;BME280;54027;50.786;7.058;2023-12-07T01:42:36;101477.00;;;2.24;100.00
67109;BME280;54027;50.786;7.058;2023-12-07T01:45:02;101479.78;;;2.30;100.00
67109;BME280;54027;50.786;7.058;2023-12-07T01:47:28;101479.13;;;2.35;100.00
67109;BME280;54027;50.786;7.058;2023-12-07T01:49:54;101482.78;;;2.42;100.00
67109;BME280;54027;50.786;7.058;2023-12-07T01:52:21;101486.31;;;2.46;100.00
67109;BME280;54027;50.786;7.058;2023-12-07T01:54:47;101491.53;;;2.49;100.00
67109;BME280;54027;50.786;7.058;2023-12-07T01:57:13;101481.44;;;2.52;100.00
67109;BME280;54027;50.786;7.058;2023-12-07T01:59:39;101490.03;;;2.55;100.00
67109;BME280;54027;50.786;7.058;2023-12-07T02:02:05;101495.22;;;2.57;100.00
67109;BME280;54027;50.786;7.058;2023-12-07T02:04:30;101494.47;;;2.61;100.00
67109;BME280;54027;50.786;7.058;2023-12-07T02:06:57;101499.69;;;2.64;100.00
67109;BME280;54027;50.786;7.058;2023-12-07T02:09:25;101491.94;;;2.61;100.00
67109;BME280;54027;50.786;7.058;2023-12-07T02:11:50;101491.09;;;2.60;100.00
67109;BME280;54027;50.786;7.058;2023-12-07T02:14:16;101496.97;;;2.58;100.00
67109;BME280;54027;50.786;7.058;2023-12-07T02:16:47;101498.41;;;2.51;100.00
67109;BME280;54027;50.786;7.058;2023-12-07T02:22:13;101502.91;;;2.34;100.00
67109;BME280;54027;50.786;7.058;2023-12-07T02:24:48;101498.22;;;2.23;100.00
67109;BME280;54027;50.786;7.058;2023-12-07T02:27:18;101498.63;;;2.11;100.00
67109;BME280;54027;50.786;7.058;2023-12-07T02:29:57;101517.91;;;2.03;100.00
67109;BME280;54027;50.786;7.058;2023-12-07T02:32:23;101515.09;;;1.97;100.00
67109;BME280;54027;50.786;7.058;2023-12-07T02:34:48;101519.09;;;1.91;100.00
67109;BME280;54027;50.786;7.058;2023-12-07T02:37:14;101510.22;;;1.81;100.00
67109;BME280;54027;50.786;7.058;2023-12-07T02:39:40;101512.50;;;1.73;100.00
67109;BME280;54027;50.786;7.058;2023-12-07T02:42:06;101513.28;;;1.72;100.00
67109;BME280;54027;50.786;7.058;2023-12-07T02:44:32;101513.38;;;1.74;100.00
67109;BME280;54027;50.786;7.058;2023-12-07T02:46:58;101521.13;;;1.77;100.00
67109;BME280;54027;50.786;7.058;2023-12-07T02:49:24;101520.50;;;1.82;100.00
67109;BME280;54027;50.786;7.058;2023-12-07T02:51:49;101514.78;;;1.90;100.00
67109;BME280;54027;50.786;7.058;2023-12-07T02:54:15;101521.53;;;1.88;100.00
67109;BME280;54027;50.786;7.058;2023-12-07T02:56:40;101513.72;;;1.83;100.00
67109;BME280;54027;50.786;7.058;2023-12-07T02:59:06;101504.47;;;1.86;100.00
67109;BME280;54027;50.786;7.058;2023-12-07T03:01:31;101508.97;;;1.92;100.00
67109;BME280;54027;50.786;7.058;2023-12-07T03:03:57;101505.78;;;1.98;100.00
67109;BME280;54027;50.786;7.058;2023-12-07T03:06:22;101502.53;;;2.02;100.00
67109;BME280;54027;50.786;7.058;2023-12-07T03:08:47;101504.34;;;2.04;100.00
67109;BME280;54027;50.786;7.058;2023-12-07T03:11:13;101505.41;;;2.11;100.00
67109;BME280;54027;50.786;7.058;2023-12-07T03:13:38;101499.56;;;2.13;100.00
67109;BME280;54027;50.786;7.058;2023-12-07T03:16:07;101495.41;;;2.15;100.00
67109;BME280;54027;50.786;7.058;2023-12-07T03:18:33;101498.06;;;2.18;100.00
67109;BME280;54027;50.786;7.058;2023-12-07T03:21:01;101499.06;;;2.22;100.00
67109;BME280;54027;50.786;7.058;2023-12-07T03:23:27;101491.56;;;2.26;100.00
67109;BME280;54027;50.786;7.058;2023-12-07T03:25:52;101495.13;;;2.31;100.00
67109;BME280;54027;50.786;7.058;2023-12-07T03:28:18;101493.53;;;2.33;100.00
67109;BME280;54027;50.786;7.058;2023-12-07T03:30:43;101504.75;;;2.38;100.00
67109;BME280;54027;50.786;7.058;2023-12-07T03:36:27;101501.78;;;2.50;100.00
67109;BME280;54027;50.786;7.058;2023-12-07T03:38:53;101495.13;;;2.55;100.00
67109;BME280;54027;50.786;7.058;2023-12-07T03:41:18;101495.25;;;2.58;100.00
67109;BME280;54027;50.786;7.058;2023-12-07T03:43:44;101491.13;;;2.62;100.00
67109;BME280;54027;50.786;7.058;2023-12-07T03:46:09;101488.53;;;2.60;100.00
67109;BME280;54027;50.786;7.058;2023-12-07T03:48:35;101491.75;;;2.55;100.00
67109;BME280;54027;50.786;7.058;2023-12-07T03:51:00;101490.88;;;2.54;100.00
67109;BME280;54027;50.786;7.058;2023-12-07T03:53:27;101494.19;;;2.52;100.00
67109;BME280;54027;50.786;7.058;2023-12-07T03:55:52;101497.59;;;2.52;100.00
67109;BME280;54027;50.786;7.058;2023-12-07T03:58:18;101493.44;;;2.54;100.00
67109;BME280;54027;50.786;7.058;2023-12-07T04:00:44;101490.91;;;2.56;100.00
67109;BME280;54027;50.786;7.058;2023-12-07T04:03:10;101499.41;;;2.55;100.00
67109;BME280;54027;50.786;7.058;2023-12-07T04:05:35;101502.88;;;2.57;100.00
67109;BME280;54027;50.786;7.058;2023-12-07T04:08:00;101499.56;;;2.59;100.00
67109;BME280;54027;50.786;7.058;2023-12-07T04:10:26;101503.00;;;2.61;100.00
67109;BME280;54027;50.786;7.058;2023-12-07T04:12:51;101497.91;;;2.61;100.00
67109;BME280;54027;50.786;7.058;2023-12-07T04:15:20;101506.44;;;2.62;100.00
67109;BME280;54027;50.786;7.058;2023-12-07T04:17:46;101495.34;;;2.61;100.00
67109;BME280;54027;50.786;7.058;2023-12-07T04:20:12;101493.53;;;2.57;100.00
67109;BME280;54027;50.786;7.058;2023-12-07T04:22:40;101490.81;;;2.53;100.00
67109;BME280;54027;50.786;7.058;2023-12-07T04:25:06;101488.91;;;2.47;100.00
67109;BME280;54027;50.786;7.058;2023-12-07T04:27:33;101492.81;;;2.37;100.00
67109;BME280;54027;50.786;7.058;2023-12-07T04:29:59;101488.31;;;2.30;100.00
67109;BME280;54027;50.786;7.058;2023-12-07T04:32:24;101493.97;;;2.22;100.00
67109;BME280;54027;50.786;7.058;2023-12-07T04:34:51;101499.63;;;2.15;100.00
67109;BME280;54027;50.786;7.058;2023-12-07T04:37:16;101494.25;;;2.07;100.00
67109;BME280;54027;50.786;7.058;2023-12-07T04:39:42;101494.75;;;1.99;100.00
67109;BME280;54027;50.786;7.058;2023-12-07T04:42:07;101498.78;;;1.92;100.00
67109;BME280;54027;50.786;7.058;2023-12-07T04:44:33;101503.69;;;1.88;100.00
67109;BME280;54027;50.786;7.058;2023-12-07T04:46:58;101504.38;;;1.83;100.00
67109;BME280;54027;50.786;7.058;2023-12-07T04:49:24;101512.88;;;1.84;100.00
67109;BME280;54027;50.786;7.058;2023-12-07T04:51:49;101512.25;;;1.90;100.00
67109;BME280;54027;50.786;7.058;2023-12-07T04:54:15;101514.19;;;1.95;100.00
67109;BME280;54027;50.786;7.058;2023-12-07T04:56:41;101525.31;;;1.97;100.00
67109;BME280;54027;50.786;7.058;2023-12-07T04:59:07;101520.44;;;2.03;100.00
67109;BME280;54027;50.786;7.058;2023-12-07T05:01:35;101521.47;;;2.08;100.00
67109;BME280;54027;50.786;7.058;2023-12-07T05:04:01;101519.22;;;2.16;100.00
67109;BME280;54027;50.786;7.058;2023-12-07T05:06:29;101518.47;;;2.18;100.00
67109;BME280;54027;50.786;7.058;2023-12-07T05:08:55;101521.06;;;2.20;100.00
67109;BME280;54027;50.786;7.058;2023-12-07T05:11:20;101527.94;;;2.22;100.00
67109;BME280;54027;50.786;7.058;2023-12-07T05:13:46;101522.97;;;2.25;100.00
67109;BME280;54027;50.786;7.058;2023-12-07T05:16:13;101537.44;;;2.25;100.00
67109;BME280;54027;50.786;7.058;2023-12-07T05:18:39;101528.94;;;2.26;100.00
67109;BME280;54027;50.786;7.058;2023-12-07T05:21:05;101531.38;;;2.23;100.00
67109;BME280;54027;50.786;7.058;2023-12-07T05:23:30;101526.34;;;2.24;100.00
67109;BME280;54027;50.786;7.058;2023-12-07T05:25:56;101528.91;;;2.24;100.00
67109;BME280;54027;50.786;7.058;2023-12-07T05:28:22;101534.81;;;2.23;100.00
67109;BME280;54027;50.786;7.058;2023-12-07T05:30:48;101534.00;;;2.24;100.00
67109;BME280;54027;50.786;7.058;2023-12-07T05:33:13;101543.38;;;2.25;100.00
67109;BME280;54027;50.786;7.058;2023-12-07T05:35:39;101544.25;;;2.26;100.00
67109;BME280;54027;50.786;7.058;2023-12-07T05:38:04;101542.53;;;2.25;100.00
67109;BME280;54027;50.786;7.058;2023-12-07T05:40:30;101541.34;;;2.17;100.00
67109;BME280;54027;50.786;7.058;2023-12-07T05:42:56;101545.25;;;2.07;100.00
67109;BME280;54027;50.786;7.058;2023-12-07T05:45:22;101549.06;;;1.96;100.00
67109;BME280;54027;50.786;7.058;2023-12-07T05:47:47;101548.00;;;1.91;100.00
67109;BME280;54027;50.786;7.058;2023-12-07T05:50:13;101546.97;;;1.86;100.00
67109;BME280;54027;50.786;7.058;2023-12-07T05:52:38;101552.63;;;1.79;100.00
67109;BME280;54027;50.786;7.058;2023-12-07T05:55:05;101550.63;;;1.72;100.00
67109;BME280;54027;50.786;7.058;2023-12-07T05:57:30;101553.31;;;1.75;100.00
67109;BME280;54027;50.786;7.058;2023-12-07T05:59:56;101550.47;;;1.67;100.00
67109;BME280;54027;50.786;7.058;2023-12-07T06:02:21;101557.91;;;1.63;100.00
67109;BME280;54027;50.786;7.058;2023-12-07T06:04:47;101562.84;;;1.58;100.00
67109;BME280;54027;50.786;7.058;2023-12-07T06:07:12;101563.59;;;1.56;100.00
67109;BME280;54027;50.786;7.058;2023-12-07T06:09:38;101560.16;;;1.55;100.00
67109;BME280;54027;50.786;7.058;2023-12-07T06:12:05;101561.03;;;1.56;100.00
67109;BME280;54027;50.786;7.058;2023-12-07T06:14:31;101554.28;;;1.56;100.00
67109;BME280;54027;50.786;7.058;2023-12-07T06:16:57;101552.53;;;1.55;100.00
67109;BME280;54027;50.786;7.058;2023-12-07T06:19:24;101544.84;;;1.54;100.00
67109;BME280;54027;50.786;7.058;2023-12-07T06:21:50;101549.69;;;1.48;100.00
67109;BME280;54027;50.786;7.058;2023-12-07T06:24:15;101541.72;;;1.40;100.00
67109;BME280;54027;50.786;7.058;2023-12-07T06:26:41;101539.84;;;1.36;100.00
67109;BME280;54027;50.786;7.058;2023-12-07T06:29:06;101543.22;;;1.35;100.00
67109;BME280;54027;50.786;7.058;2023-12-07T06:31:33;101534.81;;;1.38;100.00
67109;BME280;54027;50.786;7.058;2023-12-07T06:33:58;101528.81;;;1.36;100.00
67109;BME280;54027;50.786;7.058;2023-12-07T06:36:26;101533.06;;;1.37;100.00
67109;BME280;54027;50.786;7.058;2023-12-07T06:38:52;101529.47;;;1.32;100.00
67109;BME280;54027;50.786;7.058;2023-12-07T06:41:18;101528.69;;;1.33;100.00
67109;BME280;54027;50.786;7.058;2023-12-07T06:43:44;101536.38;;;1.34;100.00
67109;BME280;54027;50.786;7.058;2023-12-07T06:46:13;101539.63;;;1.30;100.00
67109;BME280;54027;50.786;7.058;2023-12-07T06:48:39;101535.88;;;1.22;100.00
67109;BME280;54027;50.786;7.058;2023-12-07T06:54:28;101528.06;;;1.17;100.00
67109;BME280;54027;50.786;7.058;2023-12-07T06:56:54;101522.00;;;1.15;100.00
67109;BME280;54027;50.786;7.058;2023-12-07T06:59:20;101512.53;;;1.11;100.00
67109;BME280;54027;50.786;7.058;2023-12-07T07:01:46;101525.25;;;1.11;100.00
67109;BME280;54027;50.786;7.058;2023-12-07T07:04:12;101528.59;;;1.10;100.00
67109;BME280;54027;50.786;7.058;2023-12-07T07:06:39;101535.31;;;1.08;100.00
67109;BME280;54027;50.786;7.058;2023-12-07T07:09:04;101532.75;;;1.08;100.00
67109;BME280;54027;50.786;7.058;2023-12-07T07:11:30;101530.25;;;1.10;100.00
67109;BME280;54027;50.786;7.058;2023-12-07T07:13:56;101530.09;;;1.05;100.00
67109;BME280;54027;50.786;7.058;2023-12-07T07:16:21;101527.47;;;1.04;100.00
67109;BME280;54027;50.786;7.058;2023-12-07T07:18:47;101518.84;;;1.00;100.00
67109;BME280;54027;50.786;7.058;2023-12-07T07:21:12;101523.13;;;1.01;100.00
67109;BME280;54027;50.786;7.058;2023-12-07T07:23:38;101527.34;;;1.01;100.00
67109;BME280;54027;50.786;7.058;2023-12-07T07:26:03;101516.53;;;1.06;100.00
67109;BME280;54027;50.786;7.058;2023-12-07T07:28:29;101523.63;;;1.13;100.00
67109;BME280;54027;50.786;7.058;2023-12-07T07:30:54;101525.25;;;1.11;100.00
67109;BME280;54027;50.786;7.058;2023-12-07T07:33:20;101526.78;;;1.08;100.00
67109;BME280;54027;50.786;7.058;2023-12-07T07:35:45;101525.00;;;1.05;100.00
67109;BME280;54027;50.786;7.058;2023-12-07T07:38:11;101528.34;;;1.04;100.00
67109;BME280;54027;50.786;7.058;2023-12-07T07:40:37;101523.88;;;0.99;100.00
67109;BME280;54027;50.786;7.058;2023-12-07T07:43:02;101517.03;;;0.98;100.00
67109;BME280;54027;50.786;7.058;2023-12-07T07:45:28;101524.59;;;0.96;100.00
67109;BME280;54027;50.786;7.058;2023-12-07T07:47:53;101521.19;;;0.96;100.00
67109;BME280;54027;50.786;7.058;2023-12-07T07:50:19;101521.28;;;0.97;100.00
67109;BME280;54027;50.786;7.058;2023-12-07T07:52:44;101519.91;;;1.05;100.00
67109;BME280;54027;50.786;7.058;2023-12-07T07:55:10;101520.97;;;1.10;100.00
67109;BME280;54027;50.786;7.058;2023-12-07T07:57:37;101518.38;;;1.09;100.00
67109;BME280;54027;50.786;7.058;2023-12-07T08:00:02;101520.09;;;1.10;100.00
67109;BME280;54027;50.786;7.058;2023-12-07T08:02:30;101524.25;;;1.08;100.00
67109;BME280;54027;50.786;7.058;2023-12-07T08:04:56;101527.72;;;1.10;100.00
67109;BME280;54027;50.786;7.058;2023-12-07T08:07:22;101526.13;;;1.12;100.00
67109;BME280;54027;50.786;7.058;2023-12-07T08:09:47;101516.19;;;1.18;100.00
67109;BME280;54027;50.786;7.058;2023-12-07T08:12:13;101521.28;;;1.18;100.00
67109;BME280;54027;50.786;7.058;2023-12-07T08:14:38;101522.88;;;1.16;100.00
67109;BME280;54027;50.786;7.058;2023-12-07T08:17:05;101523.75;;;1.16;100.00
67109;BME280;54027;50.786;7.058;2023-12-07T08:19:30;101523.13;;;1.22;100.00
67109;BME280;54027;50.786;7.058;2023-12-07T08:21:56;101522.47;;;1.26;100.00
67109;BME280;54027;50.786;7.058;2023-12-07T08:24:21;101523.47;;;1.29;100.00
67109;BME280;54027;50.786;7.058;2023-12-07T08:26:47;101524.50;;;1.35;100.00
67109;BME280;54027;50.786;7.058;2023-12-07T08:29:12;101524.75;;;1.41;100.00
67109;BME280;54027;50.786;7.058;2023-12-07T08:31:40;101529.78;;;1.39;100.00
67109;BME280;54027;50.786;7.058;2023-12-07T08:34:05;101523.88;;;1.40;100.00
67109;BME280;54027;50.786;7.058;2023-12-07T08:36:31;101533.53;;;1.47;100.00
67109;BME280;54027;50.786;7.058;2023-12-07T08:38:56;101537.88;;;1.50;100.00
67109;BME280;54027;50.786;7.058;2023-12-07T08:41:22;101528.69;;;1.53;100.00
67109;BME280;54027;50.786;7.058;2023-12-07T08:43:47;101531.34;;;1.56;100.00
67109;BME280;54027;50.786;7.058;2023-12-07T08:46:13;101527.19;;;1.58;100.00
67109;BME280;54027;50.786;7.058;2023-12-07T08:48:38;101527.22;;;1.60;100.00
67109;BME280;54027;50.786;7.058;2023-12-07T08:51:04;101532.50;;;1.64;100.00
67109;BME280;54027;50.786;7.058;2023-12-07T08:53:30;101528.34;;;1.66;100.00
67109;BME280;54027;50.786;7.058;2023-12-07T08:55:55;101529.28;;;1.68;100.00
67109;BME280;54027;50.786;7.058;2023-12-07T08:58:21;101533.66;;;1.72;100.00
67109;BME280;54027;50.786;7.058;2023-12-07T09:00:47;101532.13;;;1.76;100.00
67109;BME280;54027;50.786;7.058;2023-12-07T09:03:12;101524.59;;;1.79;100.00
67109;BME280;54027;50.786;7.058;2023-12-07T09:05:38;101531.59;;;1.84;100.00
67109;BME280;54027;50.786;7.058;2023-12-07T09:08:04;101535.91;;;1.85;100.00
67109;BME280;54027;50.786;7.058;2023-12-07T09:10:30;101533.47;;;1.89;100.00
67109;BME280;54027;50.786;7.058;2023-12-07T09:12:56;101537.81;;;1.91;100.00
67109;BME280;54027;50.786;7.058;2023-12-07T09:15:21;101541.38;;;1.95;100.00
67109;BME280;54027;50.786;7.058;2023-12-07T09:17:47;101538.97;;;1.99;100.00
67109;BME280;54027;50.786;7.058;2023-12-07T09:20:14;101539.91;;;2.01;100.00
67109;BME280;54027;50.786;7.058;2023-12-07T09:22:43;101534.09;;;2.05;100.00
67109;BME280;54027;50.786;7.058;2023-12-07T09:25:09;101532.53;;;2.09;100.00
67109;BME280;54027;50.786;7.058;2023-12-07T09:27:36;101529.25;;;2.11;100.00
67109;BME280;54027;50.786;7.058;2023-12-07T09:30:05;101526.03;;;2.17;100.00
67109;BME280;54027;50.786;7.058;2023-12-07T09:32:31;101532.94;;;2.19;100.00
67109;BME280;54027;50.786;7.058;2023-12-07T09:34:57;101532.22;;;2.22;100.00
67109;BME280;54027;50.786;7.058;2023-12-07T09:37:22;101527.22;;;2.25;100.00
67109;BME280;54027;50.786;7.058;2023-12-07T09:39:48;101526.56;;;2.30;100.00
67109;BME280;54027;50.786;7.058;2023-12-07T09:42:13;101518.16;;;2.33;100.00
67109;BME280;54027;50.786;7.058;2023-12-07T09:44:39;101524.38;;;2.39;100.00
67109;BME280;54027;50.786;7.058;2023-12-07T09:47:05;101525.38;;;2.45;100.00
67109;BME280;54027;50.786;7.058;2023-12-07T09:49:31;101517.09;;;2.50;100.00
67109;BME280;54027;50.786;7.058;2023-12-07T09:51:58;101522.25;;;2.52;100.00
67109;BME280;54027;50.786;7.058;2023-12-07T09:54:25;101526.59;;;2.54;100.00
67109;BME280;54027;50.786;7.058;2023-12-07T09:56:51;101519.81;;;2.55;100.00
67109;BME280;54027;50.786;7.058;2023-12-07T09:59:19;101514.72;;;2.55;100.00
67109;BME280;54027;50.786;7.058;2023-12-07T10:01:45;101512.19;;;2.56;100.00
67109;BME280;54027;50.786;7.058;2023-12-07T10:06:43;101519.19;;;2.62;100.00
67109;BME280;54027;50.786;7.058;2023-12-07T10:09:19;101518.63;;;2.69;100.00
67109;BME280;54027;50.786;7.058;2023-12-07T10:11:46;101518.81;;;2.75;100.00
67109;BME280;54027;50.786;7.058;2023-12-07T10:14:13;101520.72;;;2.80;100.00
67109;BME280;54027;50.786;7.058;2023-12-07T10:16:52;101514.84;;;2.83;100.00
67109;BME280;54027;50.786;7.058;2023-12-07T10:19:18;101508.16;;;2.86;100.00
67109;BME280;54027;50.786;7.058;2023-12-07T10:21:47;101493.06;;;2.92;100.00
67109;BME280;54027;50.786;7.058;2023-12-07T10:24:13;101503.38;;;2.95;100.00
67109;BME280;54027;50.786;7.058;2023-12-07T10:26:39;101495.06;;;3.01;100.00
67109;BME280;54027;50.786;7.058;2023-12-07T10:29:05;101499.50;;;3.07;100.00
67109;BME280;54027;50.786;7.058;2023-12-07T10:31:32;101489.28;;;3.07;100.00
67109;BME280;54027;50.786;7.058;2023-12-07T10:33:59;101480.91;;;3.11;100.00
67109;BME280;54027;50.786;7.058;2023-12-07T10:36:25;101482.81;;;3.18;100.00
67109;BME280;54027;50.786;7.058;2023-12-07T10:38:51;101470.78;;;3.14;100.00
67109;BME280;54027;50.786;7.058;2023-12-07T10:41:18;101466.63;;;3.17;100.00
67109;BME280;54027;50.786;7.058;2023-12-07T10:43:48;101462.75;;;3.28;100.00
67109;BME280;54027;50.786;7.058;2023-12-07T10:46:15;101457.78;;;3.33;100.00
67109;BME280;54027;50.786;7.058;2023-12-07T10:48:48;101448.31;;;3.29;100.00
67109;BME280;54027;50.786;7.058;2023-12-07T10:54:03;101421.00;;;3.28;100.00
67109;BME280;54027;50.786;7.058;2023-12-07T10:56:36;101417.06;;;3.37;100.00
67109;BME280;54027;50.786;7.058;2023-12-07T10:59:06;101411.25;;;3.43;100.00
67109;BME280;54027;50.786;7.058;2023-12-07T11:01:33;101400.19;;;3.44;100.00
67109;BME280;54027;50.786;7.058;2023-12-07T11:04:00;101406.16;;;3.43;100.00
67109;BME280;54027;50.786;7.058;2023-12-07T11:06:27;101401.16;;;3.47;100.00
67109;BME280;54027;50.786;7.058;2023-12-07T11:09:08;101392.72;;;3.50;100.00
67109;BME280;54027;50.786;7.058;2023-12-07T11:11:58;101381.75;;;3.52;100.00
67109;BME280;54027;50.786;7.058;2023-12-07T11:14:25;101376.75;;;3.57;100.00
67109;BME280;54027;50.786;7.058;2023-12-07T11:16:52;101376.53;;;3.49;100.00
67109;BME280;54027;50.786;7.058;2023-12-07T11:22:03;101374.25;;;3.59;100.00
67109;BME280;54027;50.786;7.058;2023-12-07T11:24:29;101371.66;;;3.57;100.00
67109;BME280;54027;50.786;7.058;2023-12-07T11:26:56;101370.00;;;3.59;100.00
67109;BME280;54027;50.786;7.058;2023-12-07T11:29:24;101359.81;;;3.61;100.00
67109;BME280;54027;50.786;7.058;2023-12-07T11:31:51;101355.69;;;3.64;100.00
67109;BME280;54027;50.786;7.058;2023-12-07T11:34:59;101344.53;;;3.62;100.00
67109;BME280;54027;50.786;7.058;2023-12-07T11:38:00;101341.25;;;3.66;100.00
67109;BME280;54027;50.786;7.058;2023-12-07T11:40:25;101337.97;;;3.70;100.00
67109;BME280;54027;50.786;7.058;2023-12-07T11:42:52;101337.91;;;3.69;100.00
67109;BME280;54027;50.786;7.058;2023-12-07T11:48:14;101334.00;;;3.81;100.00
67109;BME280;54027;50.786;7.058;2023-12-07T11:53:50;101319.47;;;3.80;100.00
67109;BME280;54027;50.786;7.058;2023-12-07T11:56:16;101319.63;;;3.85;100.00
67109;BME280;54027;50.786;7.058;2023-12-07T11:58:47;101312.75;;;3.82;100.00
67109;BME280;54027;50.786;7.058;2023-12-07T12:01:12;101312.91;;;3.88;99.66
67109;BME280;54027;50.786;7.058;2023-12-07T12:03:38;101307.03;;;3.92;99.25
67109;BME280;54027;50.786;7.058;2023-12-07T12:06:05;101298.47;;;3.90;98.42
67109;BME280;54027;50.786;7.058;2023-12-07T12:08:31;101296.84;;;3.94;98.62
67109;BME280;54027;50.786;7.058;2023-12-07T12:10:57;101297.47;;;3.85;98.04
67109;BME280;54027;50.786;7.058;2023-12-07T12:13:27;101295.00;;;3.88;98.05
67109;BME280;54027;50.786;7.058;2023-12-07T12:15:53;101302.59;;;3.85;98.10
67109;BME280;54027;50.786;7.058;2023-12-07T12:18:19;101298.38;;;3.87;98.00
67109;BME280;54027;50.786;7.058;2023-12-07T12:20:46;101295.72;;;3.84;97.32
67109;BME280;54027;50.786;7.058;2023-12-07T12:23:11;101301.63;;;3.82;97.92
67109;BME280;54027;50.786;7.058;2023-12-07T12:25:37;101300.75;;;3.81;97.96
67109;BME280;54027;50.786;7.058;2023-12-07T12:28:05;101288.78;;;3.79;98.30
67109;BME280;54027;50.786;7.058;2023-12-07T12:30:32;101293.81;;;3.77;97.66
67109;BME280;54027;50.786;7.058;2023-12-07T12:32:59;101286.22;;;3.79;97.26
67109;BME280;54027;50.786;7.058;2023-12-07T12:35:27;101292.31;;;3.84;98.26
67109;BME280;54027;50.786;7.058;2023-12-07T12:37:53;101265.25;;;3.92;96.31
67109;BME280;54027;50.786;7.058;2023-12-07T12:40:21;101272.97;;;3.93;96.69
67109;BME280;54027;50.786;7.058;2023-12-07T12:42:48;101261.06;;;3.95;95.74
67109;BME280;54027;50.786;7.058;2023-12-07T12:45:15;101259.56;;;4.02;95.11
67109;BME280;54027;50.786;7.058;2023-12-07T12:47:41;101254.50;;;4.05;95.55
67109;BME280;54027;50.786;7.058;2023-12-07T12:50:09;101237.44;;;4.04;94.34
67109;BME280;54027;50.786;7.058;2023-12-07T12:52:34;101241.81;;;4.08;94.72
67109;BME280;54027;50.786;7.058;2023-12-07T12:55:01;101230.75;;;4.09;94.79
67109;BME280;54027;50.786;7.058;2023-12-07T12:57:28;101226.41;;;4.06;94.41
67109;BME280;54027;50.786;7.058;2023-12-07T12:59:53;101236.59;;;4.05;95.76
67109;BME280;54027;50.786;7.058;2023-12-07T13:02:53;101221.06;;;3.97;94.52
67109;BME280;54027;50.786;7.058;2023-12-07T13:05:18;101216.72;;;3.93;95.44
67109;BME280;54027;50.786;7.058;2023-12-07T13:07:44;101223.44;;;3.90;95.51
67109;BME280;54027;50.786;7.058;2023-12-07T13:10:12;101226.81;;;3.89;95.32